sensor_id;sensor_type;location;lat;lon;timestamp;P1;durP1;ratioP1;P2;durP2;ratioP2
72209;SDS011;60113;48.762;12.302;2023-12-07T00:01:03;31.88;;;20.52;;
72209;SDS011;60113;48.762;12.302;2023-12-07T00:03:28;32.95;;;20.80;;
72209;SDS011;60113;48.762;12.302;2023-12-07T00:05:54;30.40;;;20.63;;
72209;SDS011;60113;48.762;12.302;2023-12-07T00:08:19;33.42;;;22.40;;
72209;SDS011;60113;48.762;12.302;2023-12-07T00:10:44;33.47;;;21.98;;
72209;SDS011;60113;48.762;12.302;2023-12-07T00:13:11;35.55;;;23.42;;
72209;SDS011;60113;48.762;12.302;2023-12-07T00:15:36;35.92;;;23.25;;
72209;SDS011;60113;48.762;12.302;2023-12-07T00:18:02;39.65;;;25.42;;
72209;SDS011;60113;48.762;12.302;2023-12-07T00:20:28;36.83;;;23.80;;
72209;SDS011;60113;48.762;12.302;2023-12-07T00:22:54;36.30;;;24.10;;
72209;SDS011;60113;48.762;12.302;2023-12-07T00:25:20;37.88;;;23.98;;
72209;SDS011;60113;48.762;12.302;2023-12-07T00:27:47;36.67;;;23.98;;
72209;SDS011;60113;48.762;12.302;2023-12-07T00:30:13;36.85;;;23.85;;
72209;SDS011;60113;48.762;12.302;2023-12-07T00:32:38;36.28;;;23.38;;
72209;SDS011;60113;48.762;12.302;2023-12-07T00:35:05;33.75;;;22.40;;
72209;SDS011;60113;48.762;12.302;2023-12-07T00:37:32;33.95;;;23.13;;
72209;SDS011;60113;48.762;12.302;2023-12-07T00:39:58;33.22;;;23.33;;
72209;SDS011;60113;48.762;12.302;2023-12-07T00:42:23;38.15;;;23.63;;
72209;SDS011;60113;48.762;12.302;2023-12-07T00:44:48;40.80;;;23.48;;
72209;SDS011;60113;48.762;12.302;2023-12-07T00:47:14;34.88;;;23.33;;
72209;SDS011;60113;48.762;12.302;2023-12-07T00:49:39;39.80;;;25.00;;
72209;SDS011;60113;48.762;12.302;2023-12-07T00:52:08;36.63;;;23.40;;
72209;SDS011;60113;48.762;12.302;2023-12-07T00:54:33;37.55;;;24.65;;
72209;SDS011;60113;48.762;12.302;2023-12-07T00:56:59;40.90;;;25.13;;
72209;SDS011;60113;48.762;12.302;2023-12-07T00:59:24;42.33;;;24.75;;
72209;SDS011;60113;48.762;12.302;2023-12-07T01:01:50;36.72;;;24.58;;
72209;SDS011;60113;48.762;12.302;2023-12-07T01:04:15;39.10;;;25.30;;
72209;SDS011;60113;48.762;12.302;2023-12-07T01:06:41;37.97;;;25.55;;
72209;SDS011;60113;48.762;12.302;2023-12-07T01:09:07;42.10;;;26.95;;
72209;SDS011;60113;48.762;12.302;2023-12-07T01:11:38;37.78;;;25.63;;
72209;SDS011;60113;48.762;12.302;2023-12-07T01:14:04;37.88;;;25.27;;
72209;SDS011;60113;48.762;12.302;2023-12-07T01:16:30;42.08;;;26.77;;
72209;SDS011;60113;48.762;12.302;2023-12-07T01:18:55;45.97;;;29.17;;
72209;SDS011;60113;48.762;12.302;2023-12-07T01:21:20;39.80;;;27.23;;
72209;SDS011;60113;48.762;12.302;2023-12-07T01:23:46;41.38;;;26.30;;
72209;SDS011;60113;48.762;12.302;2023-12-07T01:26:11;39.72;;;26.02;;
72209;SDS011;60113;48.762;12.302;2023-12-07T01:28:37;40.00;;;26.15;;
72209;SDS011;60113;48.762;12.302;2023-12-07T01:31:02;38.80;;;24.17;;
72209;SDS011;60113;48.762;12.302;2023-12-07T01:33:27;36.90;;;24.27;;
72209;SDS011;60113;48.762;12.302;2023-12-07T01:35:53;40.28;;;25.55;;
72209;SDS011;60113;48.762;12.302;2023-12-07T01:38:19;39.95;;;24.27;;
72209;SDS011;60113;48.762;12.302;2023-12-07T01:40:44;37.97;;;25.17;;
72209;SDS011;60113;48.762;12.302;2023-12-07T01:43:10;37.45;;;23.88;;
72209;SDS011;60113;48.762;12.302;2023-12-07T01:45:35;36.10;;;24.48;;
72209;SDS011;60113;48.762;12.302;2023-12-07T01:48:00;37.72;;;24.90;;
72209;SDS011;60113;48.762;12.302;2023-12-07T01:50:26;39.08;;;24.75;;
72209;SDS011;60113;48.762;12.302;2023-12-07T01:52:54;39.13;;;24.48;;
72209;SDS011;60113;48.762;12.302;2023-12-07T01:55:24;38.10;;;23.40;;
72209;SDS011;60113;48.762;12.302;2023-12-07T01:57:52;41.65;;;24.85;;
72209;SDS011;60113;48.762;12.302;2023-12-07T02:00:17;36.40;;;24.17;;
72209;SDS011;60113;48.762;12.302;2023-12-07T02:02:44;40.28;;;23.85;;
72209;SDS011;60113;48.762;12.302;2023-12-07T02:05:12;112.35;;;63.00;;
72209;SDS011;60113;48.762;12.302;2023-12-07T02:07:38;41.47;;;26.58;;
72209;SDS011;60113;48.762;12.302;2023-12-07T02:10:06;38.28;;;24.13;;
72209;SDS011;60113;48.762;12.302;2023-12-07T02:12:32;36.80;;;23.77;;
72209;SDS011;60113;48.762;12.302;2023-12-07T02:14:58;36.95;;;24.10;;
72209;SDS011;60113;48.762;12.302;2023-12-07T02:17:26;35.60;;;23.50;;
72209;SDS011;60113;48.762;12.302;2023-12-07T02:20:03;33.88;;;23.38;;
72209;SDS011;60113;48.762;12.302;2023-12-07T02:22:37;38.47;;;24.40;;
72209;SDS011;60113;48.762;12.302;2023-12-07T02:25:08;36.00;;;24.27;;
72209;SDS011;60113;48.762;12.302;2023-12-07T02:27:35;39.10;;;24.70;;
72209;SDS011;60113;48.762;12.302;2023-12-07T02:30:02;38.15;;;24.92;;
72209;SDS011;60113;48.762;12.302;2023-12-07T02:32:29;40.80;;;24.73;;
72209;SDS011;60113;48.762;12.302;2023-12-07T02:34:54;38.83;;;25.50;;
72209;SDS011;60113;48.762;12.302;2023-12-07T02:37:20;40.03;;;25.38;;
72209;SDS011;60113;48.762;12.302;2023-12-07T02:39:48;38.40;;;25.08;;
72209;SDS011;60113;48.762;12.302;2023-12-07T02:42:15;41.10;;;25.52;;
72209;SDS011;60113;48.762;12.302;2023-12-07T02:44:42;42.58;;;26.00;;
72209;SDS011;60113;48.762;12.302;2023-12-07T02:47:08;42.40;;;25.70;;
72209;SDS011;60113;48.762;12.302;2023-12-07T02:49:33;38.00;;;25.23;;
72209;SDS011;60113;48.762;12.302;2023-12-07T02:51:59;44.22;;;25.52;;
72209;SDS011;60113;48.762;12.302;2023-12-07T02:54:24;39.85;;;25.77;;
72209;SDS011;60113;48.762;12.302;2023-12-07T02:56:50;43.13;;;26.92;;
72209;SDS011;60113;48.762;12.302;2023-12-07T02:59:15;43.25;;;26.75;;
72209;SDS011;60113;48.762;12.302;2023-12-07T03:01:40;41.45;;;26.52;;
72209;SDS011;60113;48.762;12.302;2023-12-07T03:04:06;42.60;;;27.30;;
72209;SDS011;60113;48.762;12.302;2023-12-07T03:06:31;42.80;;;26.80;;
72209;SDS011;60113;48.762;12.302;2023-12-07T03:08:57;42.30;;;26.48;;
72209;SDS011;60113;48.762;12.302;2023-12-07T03:11:24;42.25;;;25.85;;
72209;SDS011;60113;48.762;12.302;2023-12-07T03:13:49;45.83;;;26.08;;
72209;SDS011;60113;48.762;12.302;2023-12-07T03:16:15;42.67;;;26.17;;
72209;SDS011;60113;48.762;12.302;2023-12-07T03:18:40;45.25;;;26.20;;
72209;SDS011;60113;48.762;12.302;2023-12-07T03:21:05;43.95;;;26.58;;
72209;SDS011;60113;48.762;12.302;2023-12-07T03:23:31;43.08;;;25.83;;
72209;SDS011;60113;48.762;12.302;2023-12-07T03:25:57;42.53;;;27.17;;
72209;SDS011;60113;48.762;12.302;2023-12-07T03:28:22;45.58;;;26.38;;
72209;SDS011;60113;48.762;12.302;2023-12-07T03:30:47;45.42;;;27.25;;
72209;SDS011;60113;48.762;12.302;2023-12-07T03:33:13;48.70;;;28.63;;
72209;SDS011;60113;48.762;12.302;2023-12-07T03:35:38;42.17;;;27.05;;
72209;SDS011;60113;48.762;12.302;2023-12-07T03:38:04;40.38;;;25.42;;
72209;SDS011;60113;48.762;12.302;2023-12-07T03:40:29;43.05;;;28.10;;
72209;SDS011;60113;48.762;12.302;2023-12-07T03:42:55;47.67;;;29.17;;
72209;SDS011;60113;48.762;12.302;2023-12-07T03:45:20;46.53;;;28.38;;
72209;SDS011;60113;48.762;12.302;2023-12-07T03:47:48;44.10;;;27.88;;
72209;SDS011;60113;48.762;12.302;2023-12-07T03:50:13;49.55;;;29.23;;
72209;SDS011;60113;48.762;12.302;2023-12-07T03:52:39;43.22;;;27.70;;
72209;SDS011;60113;48.762;12.302;2023-12-07T03:55:04;42.08;;;26.75;;
72209;SDS011;60113;48.762;12.302;2023-12-07T03:57:30;44.83;;;27.42;;
72209;SDS011;60113;48.762;12.302;2023-12-07T03:59:56;45.83;;;28.88;;
72209;SDS011;60113;48.762;12.302;2023-12-07T04:02:22;49.38;;;29.80;;
72209;SDS011;60113;48.762;12.302;2023-12-07T04:04:47;48.60;;;31.23;;
72209;SDS011;60113;48.762;12.302;2023-12-07T04:07:13;47.13;;;29.58;;
72209;SDS011;60113;48.762;12.302;2023-12-07T04:09:38;47.28;;;29.25;;
72209;SDS011;60113;48.762;12.302;2023-12-07T04:12:04;51.38;;;30.20;;
72209;SDS011;60113;48.762;12.302;2023-12-07T04:14:30;49.75;;;29.48;;
72209;SDS011;60113;48.762;12.302;2023-12-07T04:16:55;53.70;;;31.40;;
72209;SDS011;60113;48.762;12.302;2023-12-07T04:19:21;57.40;;;31.58;;
72209;SDS011;60113;48.762;12.302;2023-12-07T04:21:46;52.42;;;30.92;;
72209;SDS011;60113;48.762;12.302;2023-12-07T04:24:12;51.05;;;30.02;;
72209;SDS011;60113;48.762;12.302;2023-12-07T04:26:37;49.45;;;29.35;;
72209;SDS011;60113;48.762;12.302;2023-12-07T04:29:03;46.75;;;29.05;;
72209;SDS011;60113;48.762;12.302;2023-12-07T04:31:28;52.30;;;31.48;;
72209;SDS011;60113;48.762;12.302;2023-12-07T04:33:53;52.58;;;31.42;;
72209;SDS011;60113;48.762;12.302;2023-12-07T04:36:19;53.72;;;30.92;;
72209;SDS011;60113;48.762;12.302;2023-12-07T04:38:44;48.67;;;30.10;;
72209;SDS011;60113;48.762;12.302;2023-12-07T04:41:10;54.28;;;30.60;;
72209;SDS011;60113;48.762;12.302;2023-12-07T04:43:35;57.80;;;32.15;;
72209;SDS011;60113;48.762;12.302;2023-12-07T04:46:01;49.63;;;31.10;;
72209;SDS011;60113;48.762;12.302;2023-12-07T04:48:27;53.13;;;31.65;;
72209;SDS011;60113;48.762;12.302;2023-12-07T04:50:52;56.70;;;31.73;;
72209;SDS011;60113;48.762;12.302;2023-12-07T04:53:18;52.35;;;32.63;;
72209;SDS011;60113;48.762;12.302;2023-12-07T04:55:43;60.97;;;36.28;;
72209;SDS011;60113;48.762;12.302;2023-12-07T04:58:12;57.03;;;34.67;;
72209;SDS011;60113;48.762;12.302;2023-12-07T05:00:38;58.25;;;35.38;;
72209;SDS011;60113;48.762;12.302;2023-12-07T05:03:03;60.50;;;34.03;;
72209;SDS011;60113;48.762;12.302;2023-12-07T05:05:29;55.17;;;32.85;;
72209;SDS011;60113;48.762;12.302;2023-12-07T05:07:54;60.55;;;34.63;;
72209;SDS011;60113;48.762;12.302;2023-12-07T05:10:19;60.70;;;35.75;;
72209;SDS011;60113;48.762;12.302;2023-12-07T05:12:45;65.50;;;36.80;;
72209;SDS011;60113;48.762;12.302;2023-12-07T05:15:11;59.63;;;34.70;;
72209;SDS011;60113;48.762;12.302;2023-12-07T05:17:36;55.30;;;33.67;;
72209;SDS011;60113;48.762;12.302;2023-12-07T05:20:02;58.72;;;34.25;;
72209;SDS011;60113;48.762;12.302;2023-12-07T05:22:30;64.05;;;35.10;;
72209;SDS011;60113;48.762;12.302;2023-12-07T05:24:55;57.28;;;32.58;;
72209;SDS011;60113;48.762;12.302;2023-12-07T05:27:21;55.10;;;32.80;;
72209;SDS011;60113;48.762;12.302;2023-12-07T05:29:46;56.55;;;31.85;;
72209;SDS011;60113;48.762;12.302;2023-12-07T05:32:12;52.10;;;30.80;;
72209;SDS011;60113;48.762;12.302;2023-12-07T05:34:37;112.95;;;59.53;;
72209;SDS011;60113;48.762;12.302;2023-12-07T05:37:03;53.85;;;32.40;;
72209;SDS011;60113;48.762;12.302;2023-12-07T05:39:29;52.92;;;29.75;;
72209;SDS011;60113;48.762;12.302;2023-12-07T05:41:55;52.03;;;30.23;;
72209;SDS011;60113;48.762;12.302;2023-12-07T05:44:20;56.42;;;29.30;;
72209;SDS011;60113;48.762;12.302;2023-12-07T05:46:47;54.47;;;29.58;;
72209;SDS011;60113;48.762;12.302;2023-12-07T05:49:13;50.28;;;29.77;;
72209;SDS011;60113;48.762;12.302;2023-12-07T05:51:39;52.50;;;31.50;;
72209;SDS011;60113;48.762;12.302;2023-12-07T05:54:04;52.97;;;30.63;;
72209;SDS011;60113;48.762;12.302;2023-12-07T05:56:30;46.38;;;28.50;;
72209;SDS011;60113;48.762;12.302;2023-12-07T05:58:56;46.55;;;28.92;;
72209;SDS011;60113;48.762;12.302;2023-12-07T06:01:22;44.55;;;27.67;;
72209;SDS011;60113;48.762;12.302;2023-12-07T06:03:49;50.53;;;29.80;;
72209;SDS011;60113;48.762;12.302;2023-12-07T06:06:14;47.53;;;28.67;;
72209;SDS011;60113;48.762;12.302;2023-12-07T06:08:40;55.10;;;31.52;;
72209;SDS011;60113;48.762;12.302;2023-12-07T06:11:06;49.55;;;29.15;;
72209;SDS011;60113;48.762;12.302;2023-12-07T06:13:32;56.58;;;32.25;;
72209;SDS011;60113;48.762;12.302;2023-12-07T06:15:58;53.38;;;30.77;;
72209;SDS011;60113;48.762;12.302;2023-12-07T06:18:24;48.15;;;28.70;;
72209;SDS011;60113;48.762;12.302;2023-12-07T06:20:50;49.70;;;30.10;;
72209;SDS011;60113;48.762;12.302;2023-12-07T06:23:15;51.03;;;31.25;;
72209;SDS011;60113;48.762;12.302;2023-12-07T06:25:41;53.33;;;30.63;;
72209;SDS011;60113;48.762;12.302;2023-12-07T06:28:06;49.13;;;30.38;;
72209;SDS011;60113;48.762;12.302;2023-12-07T06:30:32;46.03;;;27.40;;
72209;SDS011;60113;48.762;12.302;2023-12-07T06:32:58;44.58;;;26.50;;
72209;SDS011;60113;48.762;12.302;2023-12-07T06:35:24;46.85;;;29.58;;
72209;SDS011;60113;48.762;12.302;2023-12-07T06:37:49;46.85;;;30.15;;
72209;SDS011;60113;48.762;12.302;2023-12-07T06:40:15;48.75;;;29.73;;
72209;SDS011;60113;48.762;12.302;2023-12-07T06:42:40;47.65;;;29.52;;
72209;SDS011;60113;48.762;12.302;2023-12-07T06:45:06;50.92;;;27.70;;
72209;SDS011;60113;48.762;12.302;2023-12-07T06:47:36;42.42;;;26.38;;
72209;SDS011;60113;48.762;12.302;2023-12-07T06:50:02;37.38;;;23.75;;
72209;SDS011;60113;48.762;12.302;2023-12-07T06:52:28;39.10;;;24.05;;
72209;SDS011;60113;48.762;12.302;2023-12-07T06:54:53;41.00;;;24.60;;
72209;SDS011;60113;48.762;12.302;2023-12-07T06:57:20;42.05;;;24.40;;
72209;SDS011;60113;48.762;12.302;2023-12-07T06:59:46;47.90;;;28.02;;
72209;SDS011;60113;48.762;12.302;2023-12-07T07:02:12;54.53;;;30.98;;
72209;SDS011;60113;48.762;12.302;2023-12-07T07:04:38;57.63;;;32.35;;
72209;SDS011;60113;48.762;12.302;2023-12-07T07:07:03;65.95;;;34.10;;
72209;SDS011;60113;48.762;12.302;2023-12-07T07:09:28;88.25;;;42.35;;
72209;SDS011;60113;48.762;12.302;2023-12-07T07:11:54;60.45;;;34.10;;
72209;SDS011;60113;48.762;12.302;2023-12-07T07:14:19;51.15;;;30.45;;
72209;SDS011;60113;48.762;12.302;2023-12-07T07:16:45;44.15;;;26.58;;
72209;SDS011;60113;48.762;12.302;2023-12-07T07:19:10;49.60;;;30.92;;
72209;SDS011;60113;48.762;12.302;2023-12-07T07:21:36;52.80;;;33.00;;
72209;SDS011;60113;48.762;12.302;2023-12-07T07:24:01;49.60;;;31.02;;
72209;SDS011;60113;48.762;12.302;2023-12-07T07:26:27;48.03;;;31.23;;
72209;SDS011;60113;48.762;12.302;2023-12-07T07:28:52;56.97;;;33.72;;
72209;SDS011;60113;48.762;12.302;2023-12-07T07:31:18;70.28;;;37.90;;
72209;SDS011;60113;48.762;12.302;2023-12-07T07:33:44;66.90;;;35.58;;
72209;SDS011;60113;48.762;12.302;2023-12-07T07:36:12;59.97;;;34.70;;
72209;SDS011;60113;48.762;12.302;2023-12-07T07:38:38;56.55;;;34.33;;
72209;SDS011;60113;48.762;12.302;2023-12-07T07:41:03;51.47;;;32.30;;
72209;SDS011;60113;48.762;12.302;2023-12-07T07:43:28;57.78;;;35.47;;
72209;SDS011;60113;48.762;12.302;2023-12-07T07:45:54;50.40;;;31.92;;
72209;SDS011;60113;48.762;12.302;2023-12-07T07:48:20;48.30;;;30.55;;
72209;SDS011;60113;48.762;12.302;2023-12-07T07:50:45;47.30;;;30.55;;
72209;SDS011;60113;48.762;12.302;2023-12-07T07:53:11;48.95;;;29.95;;
72209;SDS011;60113;48.762;12.302;2023-12-07T07:55:36;55.00;;;33.58;;
72209;SDS011;60113;48.762;12.302;2023-12-07T07:58:02;49.88;;;30.95;;
72209;SDS011;60113;48.762;12.302;2023-12-07T08:00:27;49.42;;;29.25;;
72209;SDS011;60113;48.762;12.302;2023-12-07T08:02:53;51.40;;;31.33;;
72209;SDS011;60113;48.762;12.302;2023-12-07T08:05:18;46.58;;;30.08;;
72209;SDS011;60113;48.762;12.302;2023-12-07T08:07:44;44.72;;;28.30;;
72209;SDS011;60113;48.762;12.302;2023-12-07T08:10:09;48.35;;;28.52;;
72209;SDS011;60113;48.762;12.302;2023-12-07T08:12:35;45.30;;;28.38;;
72209;SDS011;60113;48.762;12.302;2023-12-07T08:15:00;43.40;;;28.10;;
72209;SDS011;60113;48.762;12.302;2023-12-07T08:17:26;46.85;;;30.85;;
72209;SDS011;60113;48.762;12.302;2023-12-07T08:19:52;34.97;;;24.58;;
72209;SDS011;60113;48.762;12.302;2023-12-07T08:22:18;35.85;;;24.58;;
72209;SDS011;60113;48.762;12.302;2023-12-07T08:24:43;33.60;;;20.75;;
72209;SDS011;60113;48.762;12.302;2023-12-07T08:27:09;35.45;;;24.10;;
72209;SDS011;60113;48.762;12.302;2023-12-07T08:29:34;33.53;;;22.88;;
72209;SDS011;60113;48.762;12.302;2023-12-07T08:32:01;30.13;;;20.75;;
72209;SDS011;60113;48.762;12.302;2023-12-07T08:34:27;34.03;;;22.08;;
72209;SDS011;60113;48.762;12.302;2023-12-07T08:36:54;30.27;;;20.77;;
72209;SDS011;60113;48.762;12.302;2023-12-07T08:39:19;36.75;;;23.05;;
72209;SDS011;60113;48.762;12.302;2023-12-07T08:41:44;44.03;;;28.55;;
72209;SDS011;60113;48.762;12.302;2023-12-07T08:44:10;29.85;;;19.90;;
72209;SDS011;60113;48.762;12.302;2023-12-07T08:46:36;31.17;;;19.52;;
72209;SDS011;60113;48.762;12.302;2023-12-07T08:49:01;35.60;;;22.98;;
72209;SDS011;60113;48.762;12.302;2023-12-07T08:51:28;41.67;;;28.05;;
72209;SDS011;60113;48.762;12.302;2023-12-07T08:53:53;53.55;;;35.40;;
72209;SDS011;60113;48.762;12.302;2023-12-07T08:56:19;42.05;;;29.35;;
72209;SDS011;60113;48.762;12.302;2023-12-07T08:58:45;40.50;;;26.77;;
72209;SDS011;60113;48.762;12.302;2023-12-07T09:01:10;37.00;;;25.98;;
72209;SDS011;60113;48.762;12.302;2023-12-07T09:03:36;38.65;;;24.05;;
72209;SDS011;60113;48.762;12.302;2023-12-07T09:06:02;35.13;;;23.23;;
72209;SDS011;60113;48.762;12.302;2023-12-07T09:08:28;34.90;;;21.63;;
72209;SDS011;60113;48.762;12.302;2023-12-07T09:10:54;29.50;;;20.42;;
72209;SDS011;60113;48.762;12.302;2023-12-07T09:13:19;32.78;;;22.10;;
72209;SDS011;60113;48.762;12.302;2023-12-07T09:15:45;31.77;;;19.98;;
72209;SDS011;60113;48.762;12.302;2023-12-07T09:18:10;32.45;;;20.77;;
72209;SDS011;60113;48.762;12.302;2023-12-07T09:20:41;31.10;;;20.23;;
72209;SDS011;60113;48.762;12.302;2023-12-07T09:23:13;36.33;;;23.58;;
72209;SDS011;60113;48.762;12.302;2023-12-07T09:25:42;30.95;;;18.30;;
72209;SDS011;60113;48.762;12.302;2023-12-07T09:28:08;26.58;;;17.15;;
72209;SDS011;60113;48.762;12.302;2023-12-07T09:30:34;25.02;;;17.00;;
72209;SDS011;60113;48.762;12.302;2023-12-07T09:33:00;23.55;;;16.80;;
72209;SDS011;60113;48.762;12.302;2023-12-07T09:35:29;24.70;;;15.95;;
72209;SDS011;60113;48.762;12.302;2023-12-07T09:37:54;27.27;;;16.73;;
72209;SDS011;60113;48.762;12.302;2023-12-07T09:40:20;39.22;;;20.83;;
72209;SDS011;60113;48.762;12.302;2023-12-07T09:42:47;27.17;;;18.02;;
72209;SDS011;60113;48.762;12.302;2023-12-07T09:45:13;29.00;;;16.50;;
72209;SDS011;60113;48.762;12.302;2023-12-07T09:47:41;24.15;;;16.65;;
72209;SDS011;60113;48.762;12.302;2023-12-07T09:50:08;22.77;;;15.93;;
72209;SDS011;60113;48.762;12.302;2023-12-07T09:52:34;26.75;;;16.40;;
72209;SDS011;60113;48.762;12.302;2023-12-07T09:55:03;22.45;;;16.05;;
72209;SDS011;60113;48.762;12.302;2023-12-07T09:57:29;26.08;;;17.45;;
72209;SDS011;60113;48.762;12.302;2023-12-07T09:59:55;27.77;;;18.33;;
72209;SDS011;60113;48.762;12.302;2023-12-07T10:02:22;32.38;;;22.20;;
72209;SDS011;60113;48.762;12.302;2023-12-07T10:04:47;25.13;;;15.88;;
72209;SDS011;60113;48.762;12.302;2023-12-07T10:07:14;24.58;;;17.85;;
72209;SDS011;60113;48.762;12.302;2023-12-07T10:09:39;27.73;;;20.42;;
72209;SDS011;60113;48.762;12.302;2023-12-07T10:12:06;24.38;;;16.15;;
72209;SDS011;60113;48.762;12.302;2023-12-07T10:14:32;27.58;;;17.60;;
72209;SDS011;60113;48.762;12.302;2023-12-07T10:16:58;34.78;;;19.83;;
72209;SDS011;60113;48.762;12.302;2023-12-07T10:19:25;33.33;;;21.20;;
72209;SDS011;60113;48.762;12.302;2023-12-07T10:21:52;30.35;;;20.70;;
72209;SDS011;60113;48.762;12.302;2023-12-07T10:24:18;34.10;;;22.63;;
72209;SDS011;60113;48.762;12.302;2023-12-07T10:26:45;29.48;;;19.73;;
72209;SDS011;60113;48.762;12.302;2023-12-07T10:29:12;27.10;;;17.27;;
72209;SDS011;60113;48.762;12.302;2023-12-07T10:31:38;24.27;;;17.17;;
72209;SDS011;60113;48.762;12.302;2023-12-07T10:34:04;24.73;;;16.38;;
72209;SDS011;60113;48.762;12.302;2023-12-07T10:36:30;23.98;;;15.77;;
72209;SDS011;60113;48.762;12.302;2023-12-07T10:38:56;21.83;;;15.15;;
72209;SDS011;60113;48.762;12.302;2023-12-07T10:41:22;28.42;;;16.55;;
72209;SDS011;60113;48.762;12.302;2023-12-07T10:43:50;27.10;;;16.40;;
72209;SDS011;60113;48.762;12.302;2023-12-07T10:46:18;23.55;;;15.40;;
72209;SDS011;60113;48.762;12.302;2023-12-07T10:48:46;21.08;;;14.43;;
72209;SDS011;60113;48.762;12.302;2023-12-07T10:51:14;20.65;;;14.30;;
72209;SDS011;60113;48.762;12.302;2023-12-07T10:53:52;21.17;;;13.98;;
72209;SDS011;60113;48.762;12.302;2023-12-07T10:56:25;21.55;;;14.10;;
72209;SDS011;60113;48.762;12.302;2023-12-07T10:58:55;20.88;;;14.30;;
72209;SDS011;60113;48.762;12.302;2023-12-07T11:01:22;21.10;;;13.88;;
72209;SDS011;60113;48.762;12.302;2023-12-07T11:03:50;17.88;;;13.27;;
72209;SDS011;60113;48.762;12.302;2023-12-07T11:06:18;21.23;;;14.32;;
72209;SDS011;60113;48.762;12.302;2023-12-07T11:09:06;19.00;;;13.20;;
72209;SDS011;60113;48.762;12.302;2023-12-07T11:14:06;21.10;;;13.25;;
72209;SDS011;60113;48.762;12.302;2023-12-07T11:16:37;19.33;;;13.07;;
72209;SDS011;60113;48.762;12.302;2023-12-07T11:19:23;20.23;;;12.00;;
72209;SDS011;60113;48.762;12.302;2023-12-07T11:22:11;18.77;;;12.35;;
72209;SDS011;60113;48.762;12.302;2023-12-07T11:24:38;18.92;;;12.40;;
72209;SDS011;60113;48.762;12.302;2023-12-07T11:27:17;17.10;;;12.45;;
72209;SDS011;60113;48.762;12.302;2023-12-07T11:29:43;17.75;;;12.75;;
72209;SDS011;60113;48.762;12.302;2023-12-07T11:32:13;18.60;;;13.23;;
72209;SDS011;60113;48.762;12.302;2023-12-07T11:34:39;22.45;;;15.15;;
72209;SDS011;60113;48.762;12.302;2023-12-07T11:37:07;17.75;;;13.35;;
72209;SDS011;60113;48.762;12.302;2023-12-07T11:39:37;28.77;;;15.02;;
72209;SDS011;60113;48.762;12.302;2023-12-07T11:42:22;25.92;;;16.95;;
72209;SDS011;60113;48.762;12.302;2023-12-07T11:44:48;24.35;;;15.85;;
72209;SDS011;60113;48.762;12.302;2023-12-07T11:47:15;19.80;;;14.60;;
72209;SDS011;60113;48.762;12.302;2023-12-07T11:49:43;21.85;;;13.50;;
72209;SDS011;60113;48.762;12.302;2023-12-07T11:52:18;18.52;;;14.18;;
72209;SDS011;60113;48.762;12.302;2023-12-07T11:54:49;20.17;;;14.30;;
72209;SDS011;60113;48.762;12.302;2023-12-07T11:57:15;22.95;;;14.80;;
72209;SDS011;60113;48.762;12.302;2023-12-07T11:59:45;18.48;;;14.23;;
72209;SDS011;60113;48.762;12.302;2023-12-07T12:02:13;18.38;;;13.80;;
72209;SDS011;60113;48.762;12.302;2023-12-07T12:04:39;19.38;;;13.35;;
72209;SDS011;60113;48.762;12.302;2023-12-07T12:07:05;20.35;;;13.73;;
72209;SDS011;60113;48.762;12.302;2023-12-07T12:09:31;18.90;;;13.15;;
72209;SDS011;60113;48.762;12.302;2023-12-07T12:11:57;18.48;;;12.88;;
72209;SDS011;60113;48.762;12.302;2023-12-07T12:14:25;17.55;;;11.93;;
72209;SDS011;60113;48.762;12.302;2023-12-07T12:16:52;16.75;;;11.70;;
72209;SDS011;60113;48.762;12.302;2023-12-07T12:19:18;18.13;;;13.98;;
72209;SDS011;60113;48.762;12.302;2023-12-07T12:21:43;23.17;;;14.85;;
72209;SDS011;60113;48.762;12.302;2023-12-07T12:24:10;20.00;;;14.68;;
72209;SDS011;60113;48.762;12.302;2023-12-07T12:26:37;20.92;;;14.68;;
72209;SDS011;60113;48.762;12.302;2023-12-07T12:29:04;23.80;;;17.27;;
72209;SDS011;60113;48.762;12.302;2023-12-07T12:34:07;25.80;;;17.23;;
72209;SDS011;60113;48.762;12.302;2023-12-07T12:36:37;88.97;;;43.95;;
72209;SDS011;60113;48.762;12.302;2023-12-07T12:39:02;47.58;;;29.83;;
72209;SDS011;60113;48.762;12.302;2023-12-07T12:41:30;30.33;;;20.63;;
72209;SDS011;60113;48.762;12.302;2023-12-07T12:43:57;30.55;;;23.25;;
72209;SDS011;60113;48.762;12.302;2023-12-07T12:46:24;47.03;;;24.10;;
72209;SDS011;60113;48.762;12.302;2023-12-07T12:51:20;19.35;;;12.70;;
72209;SDS011;60113;48.762;12.302;2023-12-07T12:53:48;19.13;;;12.70;;
72209;SDS011;60113;48.762;12.302;2023-12-07T12:56:14;21.05;;;13.48;;
72209;SDS011;60113;48.762;12.302;2023-12-07T12:58:39;19.08;;;13.15;;
72209;SDS011;60113;48.762;12.302;2023-12-07T13:01:05;18.20;;;13.77;;
72209;SDS011;60113;48.762;12.302;2023-12-07T13:03:32;20.10;;;13.38;;
72209;SDS011;60113;48.762;12.302;2023-12-07T13:05:57;20.52;;;14.07;;
72209;SDS011;60113;48.762;12.302;2023-12-07T13:08:23;21.40;;;15.43;;
72209;SDS011;60113;48.762;12.302;2023-12-07T13:10:49;23.00;;;15.20;;
72209;SDS011;60113;48.762;12.302;2023-12-07T13:13:15;25.08;;;16.23;;
72209;SDS011;60113;48.762;12.302;2023-12-07T13:15:41;22.88;;;15.50;;
72209;SDS011;60113;48.762;12.302;2023-12-07T13:18:07;23.48;;;16.73;;
72209;SDS011;60113;48.762;12.302;2023-12-07T13:20:35;22.08;;;15.55;;
72209;SDS011;60113;48.762;12.302;2023-12-07T13:23:01;25.10;;;16.80;;
72209;SDS011;60113;48.762;12.302;2023-12-07T13:25:26;25.83;;;17.10;;
72209;SDS011;60113;48.762;12.302;2023-12-07T13:27:52;24.38;;;16.10;;
72209;SDS011;60113;48.762;12.302;2023-12-07T13:30:17;23.60;;;16.58;;
72209;SDS011;60113;48.762;12.302;2023-12-07T13:32:43;24.73;;;17.20;;
72209;SDS011;60113;48.762;12.302;2023-12-07T13:35:08;21.58;;;15.80;;
72209;SDS011;60113;48.762;12.302;2023-12-07T13:37:34;22.95;;;15.90;;
72209;SDS011;60113;48.762;12.302;2023-12-07T13:40:01;21.55;;;15.45;;
72209;SDS011;60113;48.762;12.302;2023-12-07T13:42:29;21.35;;;15.52;;
72209;SDS011;60113;48.762;12.302;2023-12-07T13:44:55;23.42;;;15.27;;
72209;SDS011;60113;48.762;12.302;2023-12-07T13:47:22;22.85;;;15.95;;
72209;SDS011;60113;48.762;12.302;2023-12-07T13:49:53;24.23;;;16.08;;
72209;SDS011;60113;48.762;12.302;2023-12-07T13:52:19;28.58;;;17.80;;
72209;SDS011;60113;48.762;12.302;2023-12-07T13:54:44;23.88;;;16.35;;
72209;SDS011;60113;48.762;12.302;2023-12-07T13:57:10;23.70;;;16.48;;
72209;SDS011;60113;48.762;12.302;2023-12-07T13:59:35;23.33;;;16.17;;
72209;SDS011;60113;48.762;12.302;2023-12-07T14:02:02;24.50;;;16.75;;
72209;SDS011;60113;48.762;12.302;2023-12-07T14:04:27;26.25;;;16.88;;
72209;SDS011;60113;48.762;12.302;2023-12-07T14:06:53;23.92;;;16.83;;
72209;SDS011;60113;48.762;12.302;2023-12-07T14:09:18;27.92;;;18.73;;
72209;SDS011;60113;48.762;12.302;2023-12-07T14:11:44;29.75;;;19.10;;